sensor_id;sensor_type;location;lat;lon;timestamp;pressure;altitude;pressure_sealevel;temperature;humidity
3102;BME280;1561;42.666;23.392;2022-12-29T00:00:37;96155.00;;;4.94;100.00
3102;BME280;1561;42.666;23.392;2022-12-29T00:03:14;96154.13;;;4.95;100.00
3102;BME280;1561;42.666;23.392;2022-12-29T00:05:53;96132.56;;;4.86;100.00
3102;BME280;1561;42.666;23.392;2022-12-29T00:08:26;96150.13;;;4.89;100.00
3102;BME280;1561;42.666;23.392;2022-12-29T00:14:04;96156.41;;;4.62;100.00
3102;BME280;1561;42.666;23.392;2022-12-29T00:16:50;96161.28;;;4.47;100.00
3102;BME280;1561;42.666;23.392;2022-12-29T00:19:21;96156.34;;;4.44;100.00
3102;BME280;1561;42.666;23.392;2022-12-29T00:22:09;96131.00;;;4.25;100.00
3102;BME280;1561;42.666;23.392;2022-12-29T00:24:55;96162.28;;;4.43;100.00
3102;BME280;1561;42.666;23.392;2022-12-29T00:27:41;96161.41;;;4.44;100.00
3102;BME280;1561;42.666;23.392;2022-12-29T00:30:26;96047.22;;;3.74;100.00
3102;BME280;1561;42.666;23.392;2022-12-29T00:33:15;96156.53;;;4.39;100.00
3102;BME280;1561;42.666;23.392;2022-12-29T00:36:04;96146.50;;;4.38;100.00
3102;BME280;1561;42.666;23.392;2022-12-29T00:38:39;96169.94;;;4.41;100.00
3102;BME280;1561;42.666;23.392;2022-12-29T00:41:30;96188.47;;;4.42;100.00
3102;BME280;1561;42.666;23.392;2022-12-29T00:44:18;96168.97;;;4.44;100.00
3102;BME280;1561;42.666;23.392;2022-12-29T00:46:49;96169.47;;;4.33;100.00
3102;BME280;1561;42.666;23.392;2022-12-29T00:49:19;96171.16;;;4.33;100.00
3102;BME280;1561;42.666;23.392;2022-12-29T00:52:04;96166.41;;;4.25;100.00
3102;BME280;1561;42.666;23.392;2022-12-29T00:54:39;96158.19;;;4.20;100.00
3102;BME280;1561;42.666;23.392;2022-12-29T00:57:15;96157.13;;;4.06;100.00
3102;BME280;1561;42.666;23.392;2022-12-29T00:59:45;96180.06;;;4.21;100.00
3102;BME280;1561;42.666;23.392;2022-12-29T01:02:15;96164.00;;;4.22;100.00
3102;BME280;1561;42.666;23.392;2022-12-29T01:04:47;96155.59;;;4.22;100.00
3102;BME280;1561;42.666;23.392;2022-12-29T01:07:19;96155.25;;;4.31;100.00
3102;BME280;1561;42.666;23.392;2022-12-29T01:09:47;96167.94;;;4.29;100.00
3102;BME280;1561;42.666;23.392;2022-12-29T01:12:37;96138.00;;;3.99;100.00
3102;BME280;1561;42.666;23.392;2022-12-29T01:15:11;96150.03;;;4.14;100.00
3102;BME280;1561;42.666;23.392;2022-12-29T01:17:46;96148.00;;;4.22;100.00
3102;BME280;1561;42.666;23.392;2022-12-29T01:20:28;96144.47;;;4.46;100.00
3102;BME280;1561;42.666;23.392;2022-12-29T01:23:03;96152.25;;;4.21;100.00
3102;BME280;1561;42.666;23.392;2022-12-29T01:25:31;96063.25;;;3.73;100.00
3102;BME280;1561;42.666;23.392;2022-12-29T01:28:12;96164.53;;;4.30;100.00
3102;BME280;1561;42.666;23.392;2022-12-29T01:30:45;96130.88;;;4.08;100.00
3102;BME280;1561;42.666;23.392;2022-12-29T01:33:15;96158.63;;;4.10;100.00
3102;BME280;1561;42.666;23.392;2022-12-29T01:35:46;96140.56;;;4.19;100.00
3102;BME280;1561;42.666;23.392;2022-12-29T01:38:17;96143.16;;;4.17;100.00
3102;BME280;1561;42.666;23.392;2022-12-29T01:40:49;96151.47;;;4.19;100.00
3102;BME280;1561;42.666;23.392;2022-12-29T01:43:19;96148.78;;;4.24;100.00
3102;BME280;1561;42.666;23.392;2022-12-29T01:45:54;95892.56;;;2.68;100.00
3102;BME280;1561;42.666;23.392;2022-12-29T01:48:24;96149.78;;;4.20;100.00
3102;BME280;1561;42.666;23.392;2022-12-29T01:50:53;96152.75;;;4.09;100.00
3102;BME280;1561;42.666;23.392;2022-12-29T01:53:26;96135.47;;;3.99;100.00
3102;BME280;1561;42.666;23.392;2022-12-29T01:55:59;96120.84;;;3.87;100.00
3102;BME280;1561;42.666;23.392;2022-12-29T01:58:39;96137.69;;;3.86;100.00
3102;BME280;1561;42.666;23.392;2022-12-29T02:01:14;96125.69;;;3.91;100.00
3102;BME280;1561;42.666;23.392;2022-12-29T02:03:45;96126.09;;;4.02;100.00
3102;BME280;1561;42.666;23.392;2022-12-29T02:06:19;96122.16;;;3.95;100.00
3102;BME280;1561;42.666;23.392;2022-12-29T02:08:49;96104.06;;;3.64;100.00
3102;BME280;1561;42.666;23.392;2022-12-29T02:11:21;96124.13;;;4.09;100.00
3102;BME280;1561;42.666;23.392;2022-12-29T02:13:57;96127.56;;;4.06;100.00
3102;BME280;1561;42.666;23.392;2022-12-29T02:16:51;96130.19;;;4.05;100.00
3102;BME280;1561;42.666;23.392;2022-12-29T02:22:53;96129.38;;;4.04;100.00
3102;BME280;1561;42.666;23.392;2022-12-29T02:25:52;96141.13;;;4.05;100.00
3102;BME280;1561;42.666;23.392;2022-12-29T02:31:27;96121.03;;;4.02;100.00
3102;BME280;1561;42.666;23.392;2022-12-29T02:34:04;96024.97;;;3.42;100.00
3102;BME280;1561;42.666;23.392;2022-12-29T02:36:43;96110.84;;;4.04;100.00
3102;BME280;1561;42.666;23.392;2022-12-29T02:39:26;96118.63;;;3.99;100.00
3102;BME280;1561;42.666;23.392;2022-12-29T02:42:05;96114.06;;;4.07;100.00
3102;BME280;1561;42.666;23.392;2022-12-29T02:44:55;96112.50;;;4.05;100.00
3102;BME280;1561;42.666;23.392;2022-12-29T02:47:38;96116.78;;;4.03;100.00
3102;BME280;1561;42.666;23.392;2022-12-29T02:50:17;96123.00;;;3.96;100.00
3102;BME280;1561;42.666;23.392;2022-12-29T02:52:52;96098.66;;;3.93;100.00
3102;BME280;1561;42.666;23.392;2022-12-29T02:55:23;96107.03;;;3.94;100.00
3102;BME280;1561;42.666;23.392;2022-12-29T02:58:09;96102.88;;;4.13;100.00
3102;BME280;1561;42.666;23.392;2022-12-29T03:01:01;96111.03;;;4.19;100.00
3102;BME280;1561;42.666;23.392;2022-12-29T03:03:44;95998.28;;;3.57;100.00
3102;BME280;1561;42.666;23.392;2022-12-29T03:06:25;96084.69;;;4.05;100.00
3102;BME280;1561;42.666;23.392;2022-12-29T03:09:07;95996.06;;;3.49;100.00
3102;BME280;1561;42.666;23.392;2022-12-29T03:11:46;96102.47;;;4.42;100.00
3102;BME280;1561;42.666;23.392;2022-12-29T03:14:42;96089.47;;;4.31;100.00
3102;BME280;1561;42.666;23.392;2022-12-29T03:20:32;95958.91;;;3.11;100.00
3102;BME280;1561;42.666;23.392;2022-12-29T03:23:05;96059.03;;;3.74;100.00
3102;BME280;1561;42.666;23.392;2022-12-29T03:25:42;96113.38;;;3.84;100.00
3102;BME280;1561;42.666;23.392;2022-12-29T03:28:13;96105.53;;;3.70;100.00
3102;BME280;1561;42.666;23.392;2022-12-29T03:30:46;96108.16;;;3.67;100.00
3102;BME280;1561;42.666;23.392;2022-12-29T03:33:19;95983.25;;;2.92;100.00
3102;BME280;1561;42.666;23.392;2022-12-29T03:35:55;96103.53;;;3.56;100.00
3102;BME280;1561;42.666;23.392;2022-12-29T03:38:34;95967.56;;;2.63;100.00
3102;BME280;1561;42.666;23.392;2022-12-29T03:41:07;96112.25;;;3.49;100.00
3102;BME280;1561;42.666;23.392;2022-12-29T03:43:36;96086.41;;;3.21;100.00
3102;BME280;1561;42.666;23.392;2022-12-29T03:46:07;96112.94;;;3.31;100.00
3102;BME280;1561;42.666;23.392;2022-12-29T03:48:36;96121.38;;;3.30;100.00
3102;BME280;1561;42.666;23.392;2022-12-29T03:51:05;96103.13;;;3.02;100.00
3102;BME280;1561;42.666;23.392;2022-12-29T03:53:37;96132.03;;;3.17;100.00
3102;BME280;1561;42.666;23.392;2022-12-29T03:56:10;96131.47;;;3.09;100.00
3102;BME280;1561;42.666;23.392;2022-12-29T03:58:37;96122.88;;;2.91;100.00
3102;BME280;1561;42.666;23.392;2022-12-29T04:01:05;95982.38;;;2.04;100.00
3102;BME280;1561;42.666;23.392;2022-12-29T04:03:37;96115.13;;;2.74;100.00
3102;BME280;1561;42.666;23.392;2022-12-29T04:06:08;96133.16;;;2.87;100.00
3102;BME280;1561;42.666;23.392;2022-12-29T04:08:37;96119.94;;;2.57;100.00
3102;BME280;1561;42.666;23.392;2022-12-29T04:11:07;96081.13;;;2.14;100.00
3102;BME280;1561;42.666;23.392;2022-12-29T04:13:35;96126.88;;;2.51;100.00
3102;BME280;1561;42.666;23.392;2022-12-29T04:16:07;96083.13;;;2.52;100.00
3102;BME280;1561;42.666;23.392;2022-12-29T04:18:38;96138.94;;;2.66;100.00
3102;BME280;1561;42.666;23.392;2022-12-29T04:21:15;96132.56;;;3.02;100.00
3102;BME280;1561;42.666;23.392;2022-12-29T04:23:47;96112.03;;;3.11;100.00
3102;BME280;1561;42.666;23.392;2022-12-29T04:26:20;96116.94;;;3.37;100.00
3102;BME280;1561;42.666;23.392;2022-12-29T04:28:56;96128.63;;;3.61;100.00
3102;BME280;1561;42.666;23.392;2022-12-29T04:31:26;96127.66;;;3.42;100.00
3102;BME280;1561;42.666;23.392;2022-12-29T04:33:54;96085.00;;;3.14;100.00
3102;BME280;1561;42.666;23.392;2022-12-29T04:36:30;96123.19;;;3.48;100.00
3102;BME280;1561;42.666;23.392;2022-12-29T04:39:00;96134.66;;;3.57;100.00
3102;BME280;1561;42.666;23.392;2022-12-29T04:41:31;96129.97;;;3.48;100.00
3102;BME280;1561;42.666;23.392;2022-12-29T04:44:00;96143.63;;;3.64;100.00
3102;BME280;1561;42.666;23.392;2022-12-29T04:46:29;96145.41;;;3.62;100.00
3102;BME280;1561;42.666;23.392;2022-12-29T04:48:57;96135.47;;;3.57;100.00
3102;BME280;1561;42.666;23.392;2022-12-29T04:51:43;96153.34;;;3.53;100.00
3102;BME280;1561;42.666;23.392;2022-12-29T04:54:12;96151.38;;;3.38;100.00
3102;BME280;1561;42.666;23.392;2022-12-29T04:56:41;96161.50;;;3.38;100.00
3102;BME280;1561;42.666;23.392;2022-12-29T04:59:19;96038.84;;;2.68;100.00
3102;BME280;1561;42.666;23.392;2022-12-29T05:01:50;96162.28;;;3.40;100.00
3102;BME280;1561;42.666;23.392;2022-12-29T05:04:21;96142.72;;;3.23;100.00
3102;BME280;1561;42.666;23.392;2022-12-29T05:06:53;96164.59;;;3.23;100.00
3102;BME280;1561;42.666;23.392;2022-12-29T05:09:23;96143.56;;;3.22;100.00
3102;BME280;1561;42.666;23.392;2022-12-29T05:11:53;96072.75;;;2.82;100.00
3102;BME280;1561;42.666;23.392;2022-12-29T05:14:21;96160.44;;;3.43;100.00
3102;BME280;1561;42.666;23.392;2022-12-29T05:16:50;96106.44;;;3.26;100.00
3102;BME280;1561;42.666;23.392;2022-12-29T05:19:32;96147.38;;;3.34;100.00
3102;BME280;1561;42.666;23.392;2022-12-29T05:22:08;96147.22;;;3.15;100.00
3102;BME280;1561;42.666;23.392;2022-12-29T05:24:36;96047.13;;;2.71;100.00
3102;BME280;1561;42.666;23.392;2022-12-29T05:27:06;96148.28;;;3.31;100.00
3102;BME280;1561;42.666;23.392;2022-12-29T05:29:36;96154.63;;;3.63;100.00
3102;BME280;1561;42.666;23.392;2022-12-29T05:32:11;96160.97;;;3.51;100.00
3102;BME280;1561;42.666;23.392;2022-12-29T05:34:43;96162.63;;;3.52;100.00
3102;BME280;1561;42.666;23.392;2022-12-29T05:37:19;96158.88;;;3.62;100.00
3102;BME280;1561;42.666;23.392;2022-12-29T05:39:48;96157.41;;;3.57;100.00
3102;BME280;1561;42.666;23.392;2022-12-29T05:42:17;96154.63;;;3.63;100.00
3102;BME280;1561;42.666;23.392;2022-12-29T05:44:46;96166.69;;;3.78;100.00
3102;BME280;1561;42.666;23.392;2022-12-29T05:47:16;96158.00;;;3.63;100.00
3102;BME280;1561;42.666;23.392;2022-12-29T05:49:46;96169.09;;;3.59;100.00
3102;BME280;1561;42.666;23.392;2022-12-29T05:52:46;96169.69;;;3.66;100.00
3102;BME280;1561;42.666;23.392;2022-12-29T05:55:16;96166.78;;;3.75;100.00
3102;BME280;1561;42.666;23.392;2022-12-29T05:57:43;96137.50;;;3.49;100.00
3102;BME280;1561;42.666;23.392;2022-12-29T06:00:14;96168.72;;;3.68;100.00
3102;BME280;1561;42.666;23.392;2022-12-29T06:02:56;96165.59;;;3.83;100.00
3102;BME280;1561;42.666;23.392;2022-12-29T06:05:40;96178.38;;;4.42;100.00
3102;BME280;1561;42.666;23.392;2022-12-29T06:08:19;96169.94;;;4.41;100.00
3102;BME280;1561;42.666;23.392;2022-12-29T06:10:46;96181.31;;;4.71;100.00
3102;BME280;1561;42.666;23.392;2022-12-29T06:13:22;96178.13;;;4.28;100.00
3102;BME280;1561;42.666;23.392;2022-12-29T06:15:53;96180.97;;;4.20;100.00
3102;BME280;1561;42.666;23.392;2022-12-29T06:18:22;96174.50;;;4.33;100.00
3102;BME280;1561;42.666;23.392;2022-12-29T06:20:50;96165.84;;;4.39;100.00
3102;BME280;1561;42.666;23.392;2022-12-29T06:23:33;96171.34;;;4.87;100.00
3102;BME280;1561;42.666;23.392;2022-12-29T06:26:09;96188.25;;;5.60;100.00
3102;BME280;1561;42.666;23.392;2022-12-29T06:28:38;96181.91;;;6.23;100.00
3102;BME280;1561;42.666;23.392;2022-12-29T06:31:09;96171.59;;;6.60;100.00
3102;BME280;1561;42.666;23.392;2022-12-29T06:33:38;96143.34;;;6.33;100.00
3102;BME280;1561;42.666;23.392;2022-12-29T06:36:07;96146.16;;;6.44;100.00
3102;BME280;1561;42.666;23.392;2022-12-29T06:38:47;96168.59;;;7.01;100.00
3102;BME280;1561;42.666;23.392;2022-12-29T06:41:27;96178.28;;;7.10;100.00
3102;BME280;1561;42.666;23.392;2022-12-29T06:43:56;96187.31;;;7.16;100.00
3102;BME280;1561;42.666;23.392;2022-12-29T06:46:25;96176.78;;;6.41;100.00
3102;BME280;1561;42.666;23.392;2022-12-29T06:49:00;95911.63;;;4.66;100.00
3102;BME280;1561;42.666;23.392;2022-12-29T06:51:30;96182.22;;;7.16;100.00
3102;BME280;1561;42.666;23.392;2022-12-29T06:54:01;96180.22;;;7.38;100.00
3102;BME280;1561;42.666;23.392;2022-12-29T06:56:30;96191.78;;;7.28;100.00
3102;BME280;1561;42.666;23.392;2022-12-29T06:58:59;96085.84;;;6.49;100.00
3102;BME280;1561;42.666;23.392;2022-12-29T07:01:30;96188.19;;;7.63;100.00
3102;BME280;1561;42.666;23.392;2022-12-29T07:04:00;96179.88;;;8.35;100.00
3102;BME280;1561;42.666;23.392;2022-12-29T07:06:36;96155.75;;;8.27;100.00
3102;BME280;1561;42.666;23.392;2022-12-29T07:09:22;96173.59;;;9.13;100.00
3102;BME280;1561;42.666;23.392;2022-12-29T07:11:53;96170.06;;;9.01;100.00
3102;BME280;1561;42.666;23.392;2022-12-29T07:14:23;96141.59;;;9.76;100.00
3102;BME280;1561;42.666;23.392;2022-12-29T07:16:58;95969.50;;;10.19;100.00
3102;BME280;1561;42.666;23.392;2022-12-29T07:19:49;96177.34;;;10.02;100.00
3102;BME280;1561;42.666;23.392;2022-12-29T07:22:21;96145.44;;;10.09;100.00
3102;BME280;1561;42.666;23.392;2022-12-29T07:25:06;96171.69;;;11.25;100.00
3102;BME280;1561;42.666;23.392;2022-12-29T07:27:34;96140.44;;;10.97;100.00
3102;BME280;1561;42.666;23.392;2022-12-29T07:30:07;96148.19;;;11.92;100.00
3102;BME280;1561;42.666;23.392;2022-12-29T07:32:42;96170.09;;;12.20;100.00
3102;BME280;1561;42.666;23.392;2022-12-29T07:35:10;96156.03;;;13.27;98.39
3102;BME280;1561;42.666;23.392;2022-12-29T07:37:42;96161.16;;;12.71;100.00
3102;BME280;1561;42.666;23.392;2022-12-29T07:40:19;96170.81;;;12.56;100.00
3102;BME280;1561;42.666;23.392;2022-12-29T07:42:50;96177.34;;;12.60;100.00
3102;BME280;1561;42.666;23.392;2022-12-29T07:45:18;96168.84;;;12.71;100.00
3102;BME280;1561;42.666;23.392;2022-12-29T07:47:48;96163.63;;;12.72;100.00
3102;BME280;1561;42.666;23.392;2022-12-29T07:50:17;96179.78;;;12.62;100.00
3102;BME280;1561;42.666;23.392;2022-12-29T07:52:58;96181.50;;;11.06;100.00
3102;BME280;1561;42.666;23.392;2022-12-29T07:55:36;96180.09;;;10.90;100.00
3102;BME280;1561;42.666;23.392;2022-12-29T07:58:06;96180.00;;;11.04;100.00
3102;BME280;1561;42.666;23.392;2022-12-29T08:00:36;96087.22;;;12.32;100.00
3102;BME280;1561;42.666;23.392;2022-12-29T08:03:08;96164.03;;;14.52;87.43
3102;BME280;1561;42.666;23.392;2022-12-29T08:05:37;96069.78;;;13.89;84.28
3102;BME280;1561;42.666;23.392;2022-12-29T08:08:09;96187.06;;;11.74;100.00
3102;BME280;1561;42.666;23.392;2022-12-29T08:10:40;96181.22;;;10.61;100.00
3102;BME280;1561;42.666;23.392;2022-12-29T08:13:15;96192.81;;;10.40;100.00
3102;BME280;1561;42.666;23.392;2022-12-29T08:15:52;96189.66;;;11.97;100.00
3102;BME280;1561;42.666;23.392;2022-12-29T08:18:23;96192.72;;;12.02;100.00
3102;BME280;1561;42.666;23.392;2022-12-29T08:20:51;96174.28;;;11.00;100.00
3102;BME280;1561;42.666;23.392;2022-12-29T08:23:24;96161.16;;;12.60;100.00
3102;BME280;1561;42.666;23.392;2022-12-29T08:25:59;96148.84;;;11.47;100.00
3102;BME280;1561;42.666;23.392;2022-12-29T08:28:31;96176.00;;;12.44;100.00
3102;BME280;1561;42.666;23.392;2022-12-29T08:31:00;96174.19;;;13.57;92.84
3102;BME280;1561;42.666;23.392;2022-12-29T08:33:30;96143.97;;;14.46;82.86
3102;BME280;1561;42.666;23.392;2022-12-29T08:36:12;96166.00;;;14.80;77.35
3102;BME280;1561;42.666;23.392;2022-12-29T08:38:42;96163.28;;;14.61;76.58
3102;BME280;1561;42.666;23.392;2022-12-29T08:41:13;96159.19;;;14.79;77.47
3102;BME280;1561;42.666;23.392;2022-12-29T08:43:51;96167.56;;;15.42;71.39
3102;BME280;1561;42.666;23.392;2022-12-29T08:46:22;96182.75;;;12.34;96.37
3102;BME280;1561;42.666;23.392;2022-12-29T08:48:52;96163.84;;;13.04;98.61
3102;BME280;1561;42.666;23.392;2022-12-29T08:51:19;96153.81;;;13.12;92.60
3102;BME280;1561;42.666;23.392;2022-12-29T08:53:48;95880.38;;;12.45;85.53
3102;BME280;1561;42.666;23.392;2022-12-29T08:56:21;96157.25;;;13.77;90.48
3102;BME280;1561;42.666;23.392;2022-12-29T08:58:53;96152.28;;;12.98;92.62
3102;BME280;1561;42.666;23.392;2022-12-29T09:01:21;96165.13;;;12.29;100.00
3102;BME280;1561;42.666;23.392;2022-12-29T09:03:53;96162.44;;;11.96;100.00
3102;BME280;1561;42.666;23.392;2022-12-29T09:06:26;96141.72;;;13.78;92.88
3102;BME280;1561;42.666;23.392;2022-12-29T09:09:00;96157.19;;;14.41;76.94
3102;BME280;1561;42.666;23.392;2022-12-29T09:11:36;96132.69;;;14.58;78.47
3102;BME280;1561;42.666;23.392;2022-12-29T09:14:06;96139.59;;;15.68;68.72
3102;BME280;1561;42.666;23.392;2022-12-29T09:16:38;96139.38;;;15.90;66.43
3102;BME280;1561;42.666;23.392;2022-12-29T09:19:22;96079.53;;;15.86;64.97
3102;BME280;1561;42.666;23.392;2022-12-29T09:21:50;96150.72;;;15.08;69.44
3102;BME280;1561;42.666;23.392;2022-12-29T09:24:20;96118.28;;;13.72;81.93
3102;BME280;1561;42.666;23.392;2022-12-29T09:26:50;96142.97;;;14.78;77.35
3102;BME280;1561;42.666;23.392;2022-12-29T09:29:22;96136.75;;;13.66;83.22
3102;BME280;1561;42.666;23.392;2022-12-29T09:31:49;96140.16;;;15.90;69.35
3102;BME280;1561;42.666;23.392;2022-12-29T09:34:19;96130.66;;;14.09;76.39
3102;BME280;1561;42.666;23.392;2022-12-29T09:36:50;96130.88;;;13.64;84.35
3102;BME280;1561;42.666;23.392;2022-12-29T09:39:24;96125.09;;;14.77;81.88
3102;BME280;1561;42.666;23.392;2022-12-29T09:42:01;96132.16;;;16.03;71.84
3102;BME280;1561;42.666;23.392;2022-12-29T09:44:51;96118.63;;;14.82;72.58
3102;BME280;1561;42.666;23.392;2022-12-29T09:47:33;96100.94;;;15.28;68.47
3102;BME280;1561;42.666;23.392;2022-12-29T09:50:04;96102.19;;;16.30;62.99
3102;BME280;1561;42.666;23.392;2022-12-29T09:52:42;96106.91;;;16.73;62.16
3102;BME280;1561;42.666;23.392;2022-12-29T09:55:17;96082.25;;;14.46;72.61
3102;BME280;1561;42.666;23.392;2022-12-29T09:57:53;96107.84;;;15.67;69.88
3102;BME280;1561;42.666;23.392;2022-12-29T10:00:36;96112.06;;;15.87;66.23
3102;BME280;1561;42.666;23.392;2022-12-29T10:03:13;96091.63;;;16.05;64.83
3102;BME280;1561;42.666;23.392;2022-12-29T10:05:47;96106.88;;;14.89;68.36
3102;BME280;1561;42.666;23.392;2022-12-29T10:08:29;96099.50;;;13.71;82.04
3102;BME280;1561;42.666;23.392;2022-12-29T10:11:09;96062.06;;;13.58;85.55
3102;BME280;1561;42.666;23.392;2022-12-29T10:13:58;96086.16;;;15.21;76.01
3102;BME280;1561;42.666;23.392;2022-12-29T10:16:39;96091.91;;;15.34;73.14
3102;BME280;1561;42.666;23.392;2022-12-29T10:19:26;96065.03;;;15.85;68.63
3102;BME280;1561;42.666;23.392;2022-12-29T10:22:07;96086.56;;;15.75;68.47
3102;BME280;1561;42.666;23.392;2022-12-29T10:24:39;96077.63;;;15.30;68.49
3102;BME280;1561;42.666;23.392;2022-12-29T10:27:12;95952.53;;;12.94;88.75
3102;BME280;1561;42.666;23.392;2022-12-29T10:29:48;96077.41;;;15.03;77.54
3102;BME280;1561;42.666;23.392;2022-12-29T10:32:27;96078.59;;;14.69;77.62
3102;BME280;1561;42.666;23.392;2022-12-29T10:35:00;96073.81;;;15.73;71.59
3102;BME280;1561;42.666;23.392;2022-12-29T10:37:41;96075.34;;;15.95;69.92
3102;BME280;1561;42.666;23.392;2022-12-29T10:40:27;96066.22;;;15.62;71.41
3102;BME280;1561;42.666;23.392;2022-12-29T10:42:58;96044.50;;;15.06;72.50
3102;BME280;1561;42.666;23.392;2022-12-29T10:45:29;96069.34;;;15.66;70.47
3102;BME280;1561;42.666;23.392;2022-12-29T10:48:05;96049.06;;;15.33;75.00
3102;BME280;1561;42.666;23.392;2022-12-29T10:50:36;96045.91;;;15.88;71.14
3102;BME280;1561;42.666;23.392;2022-12-29T10:53:18;96064.16;;;13.95;83.95
3102;BME280;1561;42.666;23.392;2022-12-29T10:55:56;96055.25;;;13.68;90.56
3102;BME280;1561;42.666;23.392;2022-12-29T10:58:31;96051.69;;;14.11;84.72
3102;BME280;1561;42.666;23.392;2022-12-29T11:01:09;96052.13;;;13.96;87.23
3102;BME280;1561;42.666;23.392;2022-12-29T11:03:59;96042.81;;;14.86;81.66
3102;BME280;1561;42.666;23.392;2022-12-29T11:06:32;95837.97;;;13.97;74.06
3102;BME280;1561;42.666;23.392;2022-12-29T11:09:12;96032.56;;;15.45;74.01
3102;BME280;1561;42.666;23.392;2022-12-29T11:11:42;96029.56;;;16.54;64.31
3102;BME280;1561;42.666;23.392;2022-12-29T11:14:14;96024.47;;;15.49;68.77
3102;BME280;1561;42.666;23.392;2022-12-29T11:16:56;95980.22;;;16.20;65.07
3102;BME280;1561;42.666;23.392;2022-12-29T11:19:27;96028.06;;;14.17;84.41
3102;BME280;1561;42.666;23.392;2022-12-29T11:22:13;96029.31;;;15.03;78.64
3102;BME280;1561;42.666;23.392;2022-12-29T11:24:46;96027.78;;;14.31;83.58
3102;BME280;1561;42.666;23.392;2022-12-29T11:27:32;96015.31;;;13.43;93.98
3102;BME280;1561;42.666;23.392;2022-12-29T11:30:02;96017.81;;;14.98;81.58
3102;BME280;1561;42.666;23.392;2022-12-29T11:32:54;96019.38;;;14.50;83.24
3102;BME280;1561;42.666;23.392;2022-12-29T11:35:31;96017.41;;;14.72;81.53
3102;BME280;1561;42.666;23.392;2022-12-29T11:38:03;96013.66;;;15.25;78.76
3102;BME280;1561;42.666;23.392;2022-12-29T11:40:31;96007.25;;;15.88;72.73
3102;BME280;1561;42.666;23.392;2022-12-29T11:43:01;96002.91;;;15.79;71.36
3102;BME280;1561;42.666;23.392;2022-12-29T11:45:31;96008.78;;;14.73;77.68
3102;BME280;1561;42.666;23.392;2022-12-29T11:48:07;96006.38;;;15.30;74.73
3102;BME280;1561;42.666;23.392;2022-12-29T11:50:53;95993.28;;;15.71;70.88
3102;BME280;1561;42.666;23.392;2022-12-29T11:53:27;95995.03;;;15.71;71.42
3102;BME280;1561;42.666;23.392;2022-12-29T11:56:00;95996.91;;;14.82;80.99
3102;BME280;1561;42.666;23.392;2022-12-29T11:58:32;95985.09;;;15.28;75.89
3102;BME280;1561;42.666;23.392;2022-12-29T12:01:19;95976.25;;;13.71;87.48
3102;BME280;1561;42.666;23.392;2022-12-29T12:04:00;96006.06;;;13.09;100.00
3102;BME280;1561;42.666;23.392;2022-12-29T12:06:44;95999.03;;;14.77;88.39
3102;BME280;1561;42.666;23.392;2022-12-29T12:09:21;96001.63;;;14.47;85.37
3102;BME280;1561;42.666;23.392;2022-12-29T12:11:58;95960.25;;;12.83;100.00
3102;BME280;1561;42.666;23.392;2022-12-29T12:14:37;95895.97;;;12.53;100.00
3102;BME280;1561;42.666;23.392;2022-12-29T12:17:12;95964.59;;;12.60;100.00
3102;BME280;1561;42.666;23.392;2022-12-29T12:19:59;95984.38;;;12.69;100.00
3102;BME280;1561;42.666;23.392;2022-12-29T12:22:35;95988.47;;;13.99;95.46
3102;BME280;1561;42.666;23.392;2022-12-29T12:25:12;95969.97;;;13.85;96.58
3102;BME280;1561;42.666;23.392;2022-12-29T12:27:48;95985.16;;;14.29;91.35
3102;BME280;1561;42.666;23.392;2022-12-29T12:30:23;95984.44;;;13.86;93.48
3102;BME280;1561;42.666;23.392;2022-12-29T12:33:05;95982.47;;;14.19;97.15
3102;BME280;1561;42.666;23.392;2022-12-29T12:35:44;95974.75;;;14.10;95.74
3102;BME280;1561;42.666;23.392;2022-12-29T12:38:25;95967.53;;;14.45;90.94
3102;BME280;1561;42.666;23.392;2022-12-29T12:41:06;95983.44;;;13.77;96.10
3102;BME280;1561;42.666;23.392;2022-12-29T12:43:41;95972.28;;;13.36;100.00
3102;BME280;1561;42.666;23.392;2022-12-29T12:46:24;95970.66;;;12.59;100.00
3102;BME280;1561;42.666;23.392;2022-12-29T12:49:12;95979.22;;;12.91;100.00
3102;BME280;1561;42.666;23.392;2022-12-29T12:51:52;95965.41;;;12.50;100.00
3102;BME280;1561;42.666;23.392;2022-12-29T12:54:35;95962.25;;;12.46;100.00
3102;BME280;1561;42.666;23.392;2022-12-29T12:57:17;95969.72;;;12.38;100.00
3102;BME280;1561;42.666;23.392;2022-12-29T13:00:03;95974.28;;;12.46;100.00
3102;BME280;1561;42.666;23.392;2022-12-29T13:02:40;95969.84;;;12.48;100.00
3102;BME280;1561;42.666;23.392;2022-12-29T13:05:25;95979.16;;;11.81;100.00
3102;BME280;1561;42.666;23.392;2022-12-29T13:11:11;95979.53;;;11.53;100.00
3102;BME280;1561;42.666;23.392;2022-12-29T13:14:07;95988.63;;;11.10;100.00
3102;BME280;1561;42.666;23.392;2022-12-29T13:16:46;95970.94;;;11.07;100.00
3102;BME280;1561;42.666;23.392;2022-12-29T13:19:24;95971.53;;;11.34;100.00
3102;BME280;1561;42.666;23.392;2022-12-29T13:22:07;95975.53;;;11.38;100.00
3102;BME280;1561;42.666;23.392;2022-12-29T13:24:53;95982.66;;;11.57;100.00
3102;BME280;1561;42.666;23.392;2022-12-29T13:27:31;95985.97;;;11.35;100.00
3102;BME280;1561;42.666;23.392;2022-12-29T13:30:08;95985.41;;;11.19;100.00
3102;BME280;1561;42.666;23.392;2022-12-29T13:32:53;95986.50;;;11.04;100.00
3102;BME280;1561;42.666;23.392;2022-12-29T13:35:34;95882.66;;;10.31;100.00
3102;BME280;1561;42.666;23.392;2022-12-29T13:38:15;95983.38;;;10.88;100.00
3102;BME280;1561;42.666;23.392;2022-12-29T13:40:59;95984.03;;;11.15;100.00
3102;BME280;1561;42.666;23.392;2022-12-29T13:43:34;95968.56;;;10.93;100.00
3102;BME280;1561;42.666;23.392;2022-12-29T13:46:34;95976.31;;;10.92;100.00
3102;BME280;1561;42.666;23.392;2022-12-29T13:49:13;95957.94;;;11.10;100.00
3102;BME280;1561;42.666;23.392;2022-12-29T13:51:49;95982.84;;;11.19;100.00
3102;BME280;1561;42.666;23.392;2022-12-29T13:54:30;95924.97;;;10.71;100.00
3102;BME280;1561;42.666;23.392;2022-12-29T13:57:28;95988.13;;;11.29;100.00
3102;BME280;1561;42.666;23.392;2022-12-29T14:00:17;95955.00;;;11.04;100.00
3102;BME280;1561;42.666;23.392;2022-12-29T14:03:11;95977.41;;;11.00;100.00
3102;BME280;1561;42.666;23.392;2022-12-29T14:06:02;95986.56;;;11.15;100.00
3102;BME280;1561;42.666;23.392;2022-12-29T14:08:45;95989.19;;;11.26;100.00
3102;BME280;1561;42.666;23.392;2022-12-29T14:11:23;95978.28;;;11.12;100.00